Time;durP1;ratioP1;P1;durP2;ratioP2;P2;SDS_P1;SDS_P2;PMS_P1;PMS_P2;Temp;Humidity;BMP_temperature;BMP_pressure;BME280_temperature;BME280_humidity;BME280_pressure;Samples;Min_cycle;Max_cycle;Signal;HPM_P1;HPM_P2
2022/04/28 00:01:11;;;;;;;1.23;0.50;;;12.70;49.00;;;;;;5114487;28;20394;-64
2022/04/28 00:03:37;;;;;;;3.08;0.73;;;12.70;49.10;;;;;;5130662;27;20444;-69
2022/04/28 00:06:03;;;;;;;3.28;0.68;;;12.70;49.00;;;;;;5112795;28;20061;-63
2022/04/28 00:46:21;;;;;;;2.35;0.63;;;12.50;49.10;;;;;;5113572;28;20043;-69
2022/04/28 00:51:35;;;;;;;3.28;0.68;;;12.50;49.10;;;;;;5113414;28;20046;-68
2022/04/28 00:54:02;;;;;;;1.35;0.70;;;12.50;49.10;;;;;;5112359;28;20036;-63
2022/04/28 00:56:29;;;;;;;1.50;0.50;;;12.50;49.10;;;;;;5112551;28;20094;-65
2022/04/28 00:58:56;;;;;;;2.15;0.70;;;12.50;49.10;;;;;;5111901;28;20126;-69
2022/04/28 01:01:22;;;;;;;1.75;0.45;;;12.50;49.10;;;;;;5112547;28;20093;-71
2022/04/28 01:03:48;;;;;;;2.67;0.88;;;12.50;49.10;;;;;;5111787;28;20048;-70
2022/04/28 01:06:14;;;;;;;2.35;0.73;;;12.40;49.10;;;;;;5111977;28;20043;-65
2022/04/28 01:08:40;;;;;;;1.95;0.77;;;12.40;49.10;;;;;;5112057;28;20092;-70
2022/04/28 01:11:07;;;;;;;2.63;0.85;;;12.40;49.10;;;;;;5113281;28;20087;-70
2022/04/28 01:13:36;;;;;;;1.98;0.63;;;12.40;49.10;;;;;;5111839;28;20383;-70
2022/04/28 01:16:04;;;;;;;2.22;0.55;;;12.40;49.20;;;;;;5111919;28;20043;-69
2022/04/28 01:18:33;;;;;;;3.60;0.60;;;12.40;49.20;;;;;;5111715;28;20464;-65
2022/04/28 01:21:03;;;;;;;1.63;0.85;;;12.40;49.20;;;;;;5112736;28;20502;-70
2022/04/28 01:23:31;;;;;;;1.98;0.60;;;12.40;49.20;;;;;;5111921;28;20110;-65
2022/04/28 01:25:57;;;;;;;1.52;0.50;;;12.40;49.20;;;;;;5112685;28;20048;-65
2022/04/28 01:28:23;;;;;;;1.92;0.85;;;12.40;49.20;;;;;;5112877;28;20122;-65
2022/04/28 01:30:49;;;;;;;2.78;0.60;;;12.30;49.10;;;;;;5111379;28;20040;-65
2022/04/28 01:33:14;;;;;;;2.47;0.75;;;12.30;49.10;;;;;;5111693;28;20054;-70
2022/04/28 01:35:40;;;;;;;2.20;0.75;;;12.30;49.10;;;;;;5112608;28;20047;-72
2022/04/28 01:38:05;;;;;;;1.83;0.55;;;12.30;49.10;;;;;;5112375;28;20139;-68
2022/04/28 01:40:31;;;;;;;2.58;0.50;;;12.30;49.20;;;;;;5111002;28;20130;-69
2022/04/28 01:42:57;;;;;;;1.27;0.70;;;12.30;49.10;;;;;;5112617;28;20031;-67
2022/04/28 01:45:22;;;;;;;2.47;0.77;;;12.30;49.20;;;;;;5112384;28;20429;-70
2022/04/28 01:47:48;;;;;;;2.15;0.60;;;12.30;49.20;;;;;;5111216;28;20039;-66
2022/04/28 01:50:14;;;;;;;1.90;0.90;;;12.30;49.90;;;;;;5111469;28;20155;-71
2022/04/28 01:55:25;;;;;;;1.60;0.43;;;12.30;49.10;;;;;;5112309;28;20406;-66
2022/04/28 01:57:51;;;;;;;1.90;0.80;;;12.20;49.10;;;;;;5110986;28;20128;-70
2022/04/28 02:00:21;;;;;;;2.80;0.77;;;12.20;49.10;;;;;;5110995;28;20047;-70
2022/04/28 02:02:47;;;;;;;1.25;0.47;;;12.20;49.10;;;;;;5112527;28;20114;-65
2022/04/28 02:05:12;;;;;;;3.58;0.75;;;12.20;49.10;;;;;;5112014;28;20131;-72
2022/04/28 02:07:38;;;;;;;1.88;0.52;;;12.20;49.10;;;;;;5112232;28;20048;-70
2022/04/28 02:10:06;;;;;;;2.75;0.98;;;12.20;49.10;;;;;;5112315;28;20040;-69
2022/04/28 02:12:31;;;;;;;2.53;0.50;;;12.20;49.10;;;;;;5111178;28;20084;-70
2022/04/28 02:14:57;;;;;;;1.98;0.70;;;12.20;49.10;;;;;;5111169;28;20031;-70
2022/04/28 02:17:26;;;;;;;2.00;0.60;;;12.20;49.10;;;;;;5110798;28;20027;-70
2022/04/28 02:19:53;;;;;;;1.00;0.50;;;12.20;49.10;;;;;;5110888;28;20040;-70
2022/04/28 02:22:21;;;;;;;2.28;0.63;;;12.10;49.00;;;;;;5110827;28;20051;-64
2022/04/28 02:24:53;;;;;;;2.00;0.35;;;12.10;49.00;;;;;;5110974;28;20044;-70
2022/04/28 02:27:24;;;;;;;2.58;0.70;;;12.10;49.10;;;;;;5111044;28;20048;-65
2022/04/28 02:29:50;;;;;;;1.60;0.52;;;12.10;49.00;;;;;;5112039;28;20395;-70
2022/04/28 02:32:16;;;;;;;2.05;0.70;;;12.10;49.00;;;;;;5110775;28;20457;-65
2022/04/28 02:34:41;;;;;;;1.38;0.50;;;12.20;48.90;;;;;;5110821;28;20043;-69
2022/04/28 02:37:07;;;;;;;2.47;0.60;;;12.20;48.90;;;;;;5112124;28;20032;-70
2022/04/28 02:39:33;;;;;;;2.20;0.60;;;12.20;48.80;;;;;;5110713;28;20039;-70
2022/04/28 02:41:58;;;;;;;2.03;0.70;;;12.20;48.70;;;;;;5112006;28;20077;-65
2022/04/28 02:44:24;;;;;;;1.17;0.55;;;12.20;49.40;;;;;;5111880;28;20040;-65
2022/04/28 02:46:50;;;;;;;3.40;0.68;;;12.20;48.60;;;;;;5110589;28;20044;-65
2022/04/28 02:49:16;;;;;;;1.80;0.73;;;12.30;48.60;;;;;;5110962;28;20118;-65
2022/04/28 02:51:42;;;;;;;2.33;0.75;;;12.30;48.60;;;;;;5112270;28;20122;-70
2022/04/28 02:54:09;;;;;;;1.63;0.50;;;12.30;48.50;;;;;;5115799;28;20279;-65
2022/04/28 02:56:35;;;;;;;2.40;0.63;;;12.30;48.40;;;;;;5115820;28;20047;-65
2022/04/28 02:59:01;;;;;;;2.38;0.55;;;12.30;48.40;;;;;;5114227;28;20088;-66
2022/04/28 03:01:27;;;;;;;1.98;0.70;;;12.30;48.40;;;;;;5097478;28;20043;-65
2022/04/28 03:03:54;;;;;;;2.38;0.55;;;12.30;48.30;;;;;;5114018;28;20050;-72
2022/04/28 03:11:53;;;;;;;1.70;0.60;;;12.30;48.20;;;;;;5115183;28;20043;-72
2022/04/28 03:14:21;;;;;;;0.68;0.57;;;12.40;48.20;;;;;;5114592;28;20356;-65
2022/04/28 03:16:46;;;;;;;1.40;0.60;;;12.40;48.10;;;;;;5114016;28;20118;-65
2022/04/28 03:19:12;;;;;;;0.95;0.40;;;12.30;48.00;;;;;;5113977;28;20134;-65
2022/04/28 03:21:38;;;;;;;2.47;0.75;;;12.40;48.00;;;;;;5113988;28;20054;-68
2022/04/28 03:24:04;;;;;;;1.90;0.68;;;12.40;48.00;;;;;;5113847;28;20044;-70
2022/04/28 03:26:30;;;;;;;1.40;0.50;;;12.40;48.00;;;;;;5115028;28;20498;-70
2022/04/28 03:28:56;;;;;;;1.05;0.52;;;12.40;47.90;;;;;;5113953;28;20039;-70
2022/04/28 03:31:22;;;;;;;1.63;0.50;;;12.40;47.90;;;;;;5115098;28;20035;-65
2022/04/28 03:33:48;;;;;;;1.30;0.65;;;12.40;47.90;;;;;;5114892;28;20043;-65
2022/04/28 03:38:59;;;;;;;2.97;0.75;;;12.40;47.80;;;;;;5113299;28;20044;-65
2022/04/28 03:41:25;;;;;;;1.88;0.60;;;12.40;47.80;;;;;;5113862;28;20048;-69
2022/04/28 03:43:51;;;;;;;1.67;0.50;;;12.30;47.70;;;;;;5114845;28;20123;-70
2022/04/28 03:46:18;;;;;;;2.13;0.65;;;12.30;47.70;;;;;;5115018;28;20071;-65
2022/04/28 03:48:44;;;;;;;2.00;0.70;;;12.40;47.70;;;;;;5113485;28;20043;-70
2022/04/28 03:51:10;;;;;;;1.85;0.60;;;12.40;47.70;;;;;;5113685;28;20036;-70
2022/04/28 03:53:36;;;;;;;1.40;0.85;;;12.30;47.60;;;;;;5113319;28;20043;-70
2022/04/28 03:56:01;;;;;;;1.20;0.63;;;12.30;47.60;;;;;;5114489;28;20058;-65
2022/04/28 03:58:27;;;;;;;1.95;0.65;;;12.30;47.60;;;;;;5113191;28;20039;-65
2022/04/28 04:00:53;;;;;;;2.45;0.60;;;12.30;47.60;;;;;;5113897;28;20035;-67
2022/04/28 04:03:20;;;;;;;1.67;0.65;;;12.30;47.60;;;;;;5114294;28;20076;-65
2022/04/28 04:05:50;;;;;;;1.17;0.60;;;12.30;47.60;;;;;;5112853;28;20127;-66
2022/04/28 04:08:16;;;;;;;2.40;0.60;;;12.30;47.60;;;;;;5113398;28;20036;-69
2022/04/28 04:10:45;;;;;;;2.50;0.55;;;12.30;47.50;;;;;;5114209;28;20051;-72
2022/04/28 04:13:10;;;;;;;1.30;0.60;;;12.30;47.50;;;;;;5112989;28;20039;-70
2022/04/28 04:15:36;;;;;;;1.80;0.70;;;12.30;47.60;;;;;;5112854;28;20043;-64
2022/04/28 04:18:03;;;;;;;3.30;0.88;;;12.30;47.60;;;;;;5114206;28;20038;-66
2022/04/28 04:20:29;;;;;;;2.10;0.70;;;12.30;47.60;;;;;;5112915;28;20616;-69
2022/04/28 04:22:54;;;;;;;2.25;0.50;;;12.30;47.60;;;;;;5114023;28;20122;-65
2022/04/28 04:25:21;;;;;;;1.77;0.63;;;12.30;47.70;;;;;;5112635;28;20406;-70
2022/04/28 04:27:47;;;;;;;1.70;0.80;;;12.30;47.60;;;;;;5112734;28;20044;-67
2022/04/28 04:32:59;;;;;;;1.70;0.70;;;12.30;47.70;;;;;;5112651;28;20047;-70
2022/04/28 04:35:25;;;;;;;1.02;0.40;;;12.30;47.70;;;;;;5112837;28;20410;-65
2022/04/28 04:37:52;;;;;;;1.48;0.60;;;12.30;47.60;;;;;;5113623;28;20044;-70
2022/04/28 04:40:18;;;;;;;1.85;0.60;;;12.30;47.70;;;;;;5112523;28;20051;-68
2022/04/28 04:42:43;;;;;;;2.90;0.73;;;12.30;48.10;;;;;;5112794;28;20043;-65
2022/04/28 04:45:10;;;;;;;1.65;0.60;;;12.30;47.70;;;;;;5113529;28;20039;-65
2022/04/28 04:47:39;;;;;;;1.42;0.70;;;12.30;47.70;;;;;;5112494;28;20043;-70
2022/04/28 04:50:09;;;;;;;1.10;0.47;;;12.30;47.70;;;;;;5112211;28;20043;-70
2022/04/28 04:52:38;;;;;;;1.75;0.70;;;12.30;48.50;;;;;;5112343;28;20437;-67
2022/04/28 04:55:07;;;;;;;2.05;0.50;;;12.40;47.90;;;;;;5112188;28;20139;-70
2022/04/28 04:57:32;;;;;;;1.98;0.43;;;12.40;47.80;;;;;;5112047;28;20052;-66
2022/04/28 04:59:58;;;;;;;1.83;0.80;;;12.40;47.70;;;;;;5112078;28;20048;-67
2022/04/28 05:02:24;;;;;;;2.90;0.75;;;12.40;47.80;;;;;;5112008;28;20039;-65
2022/04/28 05:04:50;;;;;;;3.83;0.80;;;12.40;47.70;;;;;;5111736;28;20048;-70
2022/04/28 05:07:16;;;;;;;0.98;0.45;;;12.40;47.80;;;;;;5113008;28;20044;-70
2022/04/28 05:09:42;;;;;;;1.67;0.60;;;12.40;47.70;;;;;;5111864;28;20050;-70
2022/04/28 05:12:11;;;;;;;1.50;0.57;;;12.40;47.70;;;;;;5111720;28;20184;-65
2022/04/28 05:14:39;;;;;;;4.25;0.50;;;12.50;47.80;;;;;;5112571;28;20028;-70
2022/04/28 05:17:05;;;;;;;1.05;0.45;;;12.40;47.70;;;;;;5111714;28;20511;-70
2022/04/28 05:19:30;;;;;;;3.58;1.20;;;12.50;47.80;;;;;;5113001;28;20069;-69
2022/04/28 05:21:56;;;;;;;3.50;0.70;;;12.50;47.70;;;;;;5111753;28;20123;-67
2022/04/28 05:24:24;;;;;;;2.70;0.60;;;12.50;47.70;;;;;;5111768;28;20491;-65
2022/04/28 05:26:50;;;;;;;2.20;0.63;;;12.50;47.70;;;;;;5113017;28;20127;-65
2022/04/28 05:29:15;;;;;;;1.98;0.60;;;12.50;47.70;;;;;;5111884;28;20394;-69
2022/04/28 05:31:41;;;;;;;1.13;0.50;;;12.50;47.70;;;;;;5111766;28;20095;-70
2022/04/28 05:34:07;;;;;;;3.45;0.70;;;12.60;47.70;;;;;;5111405;28;20436;-69
2022/04/28 05:36:33;;;;;;;1.10;0.40;;;12.60;47.70;;;;;;5111482;28;20069;-70
2022/04/28 05:39:00;;;;;;;3.40;1.10;;;12.60;47.80;;;;;;5111318;28;20039;-70
2022/04/28 05:41:26;;;;;;;1.50;0.70;;;12.60;47.70;;;;;;5112847;28;20403;-70
2022/04/28 05:46:38;;;;;;;1.55;0.50;;;12.60;47.70;;;;;;5112334;28;20518;-70
2022/04/28 05:49:07;;;;;;;1.23;0.50;;;12.70;47.80;;;;;;5112554;28;20082;-65
2022/04/28 05:51:33;;;;;;;1.00;0.63;;;12.60;47.70;;;;;;5111540;28;20039;-70
2022/04/28 05:54:01;;;;;;;2.22;0.32;;;12.70;47.70;;;;;;5111111;28;20502;-71
2022/04/28 05:56:28;;;;;;;1.42;0.70;;;12.70;47.70;;;;;;5111180;28;20047;-69
2022/04/28 05:58:55;;;;;;;3.03;0.50;;;12.70;47.80;;;;;;5111487;28;20402;-66
2022/04/28 06:01:21;;;;;;;2.08;0.70;;;12.70;47.70;;;;;;5112470;28;20043;-67
2022/04/28 06:03:47;;;;;;;2.40;0.50;;;12.70;47.80;;;;;;5112325;28;20394;-70
2022/04/28 06:06:12;;;;;;;2.42;0.50;;;12.70;47.70;;;;;;5110632;28;20504;-71
2022/04/28 06:08:39;;;;;;;2.05;0.57;;;12.70;47.80;;;;;;5110995;28;20054;-66
2022/04/28 06:11:05;;;;;;;2.58;0.55;;;12.80;47.80;;;;;;5111139;28;20051;-70
2022/04/28 06:13:31;;;;;;;2.70;0.65;;;12.70;47.80;;;;;;5111260;28;20036;-69
2022/04/28 06:15:58;;;;;;;1.55;0.55;;;12.80;47.80;;;;;;5110962;28;20126;-70
2022/04/28 06:18:24;;;;;;;1.35;0.68;;;12.80;47.90;;;;;;5111240;28;20055;-70
2022/04/28 06:20:50;;;;;;;3.55;0.60;;;12.70;47.80;;;;;;5111069;28;20063;-69
2022/04/28 06:23:16;;;;;;;0.75;0.40;;;12.80;47.90;;;;;;5110910;28;20408;-70
2022/04/28 06:25:41;;;;;;;1.38;0.32;;;12.80;47.90;;;;;;5110783;28;20055;-66
2022/04/28 06:28:09;;;;;;;4.03;0.88;;;12.80;48.00;;;;;;5115049;28;20047;-71
2022/04/28 06:30:36;;;;;;;1.88;0.57;;;12.80;48.00;;;;;;5115114;28;20384;-65
2022/04/28 06:33:02;;;;;;;3.60;0.98;;;12.80;48.00;;;;;;5115571;28;20067;-70
2022/04/28 06:35:28;;;;;;;2.13;0.57;;;12.80;48.10;;;;;;5114823;28;20047;-65
2022/04/28 06:37:53;;;;;;;3.45;0.88;;;12.80;48.10;;;;;;5115111;28;20051;-68
2022/04/28 06:40:19;;;;;;;1.88;0.77;;;12.80;48.10;;;;;;5116189;28;20546;-70
2022/04/28 06:42:49;;;;;;;1.38;0.52;;;12.80;48.10;;;;;;5115005;28;20038;-70
2022/04/28 06:45:15;;;;;;;1.70;0.90;;;12.90;48.20;;;;;;5115858;28;20040;-70
2022/04/28 06:47:40;;;;;;;2.47;0.50;;;12.80;48.10;;;;;;5116032;28;20399;-65
2022/04/28 06:50:06;;;;;;;2.25;0.88;;;12.80;48.10;;;;;;5114749;28;20461;-70
2022/04/28 06:52:38;;;;;;;1.73;0.60;;;12.90;48.20;;;;;;5114622;28;20399;-71
2022/04/28 06:55:06;;;;;;;1.60;0.65;;;13.00;48.20;;;;;;5116007;28;20410;-70
2022/04/28 06:57:32;;;;;;;1.63;0.70;;;12.80;48.20;;;;;;5114421;28;20479;-70
2022/04/28 06:59:58;;;;;;;1.75;0.50;;;12.90;48.20;;;;;;5115655;28;20085;-70
2022/04/28 07:02:24;;;;;;;2.88;0.70;;;12.90;48.10;;;;;;5114400;28;20046;-70
2022/04/28 07:04:50;;;;;;;1.88;0.50;;;12.90;48.00;;;;;;5113989;28;20087;-65
2022/04/28 07:07:16;;;;;;;1.00;0.60;;;12.90;47.90;;;;;;5114203;28;20051;-70
2022/04/28 07:09:42;;;;;;;1.52;0.70;;;12.90;48.00;;;;;;5114206;28;20054;-67
2022/04/28 07:12:08;;;;;;;1.70;0.70;;;12.90;47.90;;;;;;5114371;28;20074;-73
2022/04/28 07:14:34;;;;;;;2.45;0.60;;;12.90;47.90;;;;;;5114194;28;20043;-69
2022/04/28 07:17:00;;;;;;;2.22;0.50;;;12.90;47.80;;;;;;5114320;28;20070;-65
2022/04/28 07:19:25;;;;;;;2.05;0.40;;;12.90;47.80;;;;;;5114000;28;20491;-68
2022/04/28 07:21:51;;;;;;;1.58;0.50;;;12.90;47.80;;;;;;5113905;28;20089;-68
2022/04/28 07:24:17;;;;;;;2.22;0.60;;;12.90;47.80;;;;;;5113888;28;20051;-72
2022/04/28 07:26:43;;;;;;;2.58;0.50;;;12.90;47.70;;;;;;5115229;28;20043;-65
2022/04/28 07:29:09;;;;;;;3.25;0.60;;;12.90;47.60;;;;;;5113969;28;20043;-67
2022/04/28 07:31:36;;;;;;;1.58;0.63;;;13.00;47.60;;;;;;5115061;28;20039;-65
2022/04/28 07:34:02;;;;;;;2.33;0.82;;;13.00;47.60;;;;;;5114075;28;20063;-69
2022/04/28 07:36:28;;;;;;;2.53;0.70;;;13.00;47.40;;;;;;5113787;28;20040;-65
2022/04/28 07:38:54;;;;;;;1.63;0.52;;;13.00;47.40;;;;;;5113360;28;20483;-65
2022/04/28 07:41:23;;;;;;;1.50;0.50;;;13.00;47.30;;;;;;5114953;28;20145;-65
2022/04/28 07:43:48;;;;;;;0.82;0.60;;;13.00;47.30;;;;;;5113538;28;20040;-65
2022/04/28 07:46:14;;;;;;;4.15;0.50;;;13.10;47.30;;;;;;5114823;28;20047;-70
2022/04/28 07:48:45;;;;;;;1.98;0.60;;;13.00;47.30;;;;;;5113736;28;20368;-65
2022/04/28 07:51:11;;;;;;;2.25;0.60;;;13.00;47.20;;;;;;5114665;28;20035;-70
2022/04/28 07:53:37;;;;;;;2.35;0.98;;;13.10;47.30;;;;;;5113351;28;20475;-65
2022/04/28 07:56:10;;;;;;;2.20;0.60;;;13.10;47.30;;;;;;5113366;28;20057;-69
2022/04/28 07:58:37;;;;;;;3.45;0.77;;;13.10;47.20;;;;;;5113144;28;20053;-68
2022/04/28 08:01:04;;;;;;;2.42;0.52;;;13.10;47.20;;;;;;5113269;28;20567;-70
2022/04/28 08:03:29;;;;;;;1.25;0.50;;;13.10;47.10;;;;;;5113172;28;20043;-67
2022/04/28 08:05:58;;;;;;;2.13;0.40;;;13.20;47.10;;;;;;5112931;28;20132;-65
2022/04/28 08:08:24;;;;;;;2.20;0.80;;;13.20;47.00;;;;;;5113321;28;20043;-69
2022/04/28 08:10:50;;;;;;;1.77;0.57;;;13.20;46.90;;;;;;5096351;28;20471;-65
2022/04/28 08:13:16;;;;;;;3.53;0.60;;;13.30;46.90;;;;;;5113242;28;20421;-66
2022/04/28 08:15:45;;;;;;;3.20;0.63;;;13.40;46.90;;;;;;5113272;28;20035;-73
2022/04/28 08:18:11;;;;;;;1.52;0.50;;;13.40;47.00;;;;;;5113054;28;20040;-65
2022/04/28 08:20:40;;;;;;;2.72;0.63;;;13.40;47.00;;;;;;5095814;28;20510;-69
2022/04/28 08:23:06;;;;;;;1.85;0.73;;;13.40;47.10;;;;;;5113021;28;20043;-67
2022/04/28 08:25:31;;;;;;;2.78;0.63;;;13.40;47.10;;;;;;5114144;28;20040;-65
2022/04/28 08:27:57;;;;;;;1.85;0.47;;;13.40;47.30;;;;;;5112982;28;20372;-66
2022/04/28 08:30:23;;;;;;;1.40;0.70;;;13.40;47.30;;;;;;5112897;28;20176;-70
2022/04/28 08:32:49;;;;;;;1.52;0.50;;;13.40;47.30;;;;;;5112617;28;20482;-69
2022/04/28 08:35:22;;;;;;;2.13;0.50;;;13.40;47.40;;;;;;5112523;28;20054;-69
2022/04/28 08:37:47;;;;;;;2.15;0.82;;;13.40;47.40;;;;;;5112994;28;20050;-69
2022/04/28 08:40:13;;;;;;;2.03;0.73;;;13.40;47.40;;;;;;5112708;28;20384;-67
2022/04/28 08:42:41;;;;;;;1.33;0.50;;;13.40;47.30;;;;;;5112662;28;20436;-65
2022/04/28 08:45:06;;;;;;;1.85;0.55;;;13.40;47.40;;;;;;5112439;28;20047;-65
2022/04/28 08:47:32;;;;;;;1.52;0.55;;;13.40;47.40;;;;;;5113791;28;20043;-66
2022/04/28 08:49:58;;;;;;;2.15;0.52;;;13.50;47.50;;;;;;5111720;28;20360;-65
2022/04/28 08:52:25;;;;;;;1.90;0.90;;;13.50;47.60;;;;;;5113539;28;20658;-70
2022/04/28 08:54:54;;;;;;;2.08;0.68;;;13.50;47.60;;;;;;5113623;28;20063;-69
2022/04/28 08:57:24;;;;;;;1.88;0.38;;;13.50;47.50;;;;;;5113650;28;20110;-70
2022/04/28 08:59:51;;;;;;;2.63;0.70;;;13.60;47.40;;;;;;5112087;28;20043;-65
2022/04/28 09:02:23;;;;;;;1.95;0.85;;;13.60;47.20;;;;;;5113299;28;20036;-70
2022/04/28 09:04:49;;;;;;;2.13;0.43;;;13.70;47.10;;;;;;5113173;28;20452;-72
2022/04/28 09:07:15;;;;;;;3.42;0.50;;;13.80;47.00;;;;;;5111877;28;20040;-71
2022/04/28 09:09:41;;;;;;;2.30;0.60;;;13.80;46.90;;;;;;5111799;28;20465;-70
2022/04/28 09:12:09;;;;;;;2.42;0.50;;;13.90;47.00;;;;;;5113262;28;20055;-69
2022/04/28 09:14:42;;;;;;;2.90;0.30;;;14.10;46.60;;;;;;5112071;28;20063;-70
2022/04/28 09:17:08;;;;;;;2.30;0.50;;;14.20;46.10;;;;;;5112909;28;20047;-70
2022/04/28 09:19:37;;;;;;;2.53;0.60;;;14.20;45.80;;;;;;5111688;28;20039;-69
2022/04/28 09:22:09;;;;;;;1.67;0.50;;;14.20;45.70;;;;;;5111828;28;20043;-67
2022/04/28 09:24:37;;;;;;;1.08;0.40;;;14.30;45.70;;;;;;5113075;28;20096;-65
2022/04/28 09:27:03;;;;;;;1.75;0.35;;;14.30;45.70;;;;;;5111425;28;20067;-69
2022/04/28 09:29:36;;;;;;;1.77;0.70;;;14.30;45.70;;;;;;5111567;28;20043;-65
2022/04/28 09:32:02;;;;;;;2.47;0.40;;;14.30;45.70;;;;;;5112664;28;20118;-65
2022/04/28 09:34:27;;;;;;;1.45;0.60;;;14.30;45.70;;;;;;5112716;28;20043;-70
2022/04/28 09:36:56;;;;;;;1.33;0.45;;;14.30;45.70;;;;;;5111709;28;20058;-69
2022/04/28 09:42:42;;;;;;;1.80;0.45;;;14.30;45.60;;;;;;5112392;28;20047;-73
2022/04/28 09:45:01;;;;;;;2.08;0.40;;;14.30;45.50;;;;;;5111144;28;20051;-70
2022/04/28 09:47:28;;;;;;;0.90;0.40;;;14.30;45.40;;;;;;5112376;28;20097;-66
2022/04/28 09:49:56;;;;;;;1.48;0.50;;;14.30;45.40;;;;;;5112551;28;20122;-70
2022/04/28 09:52:30;;;;;;;1.15;0.30;;;14.30;45.40;;;;;;5112459;28;20476;-67
2022/04/28 09:54:58;;;;;;;1.80;0.40;;;14.30;45.30;;;;;;5111104;28;20050;-67
2022/04/28 09:57:24;;;;;;;2.15;0.50;;;14.30;45.20;;;;;;5111290;28;20052;-67
2022/04/28 09:59:53;;;;;;;1.75;0.40;;;14.30;45.20;;;;;;5112356;28;20529;-66
2022/04/28 10:02:20;;;;;;;1.95;0.40;;;14.40;45.10;;;;;;5112438;28;20398;-70
2022/04/28 10:04:47;;;;;;;2.58;0.30;;;14.50;44.90;;;;;;5112411;28;20044;-70
2022/04/28 10:07:14;;;;;;;1.38;0.30;;;14.60;44.70;;;;;;5110959;28;20278;-65
2022/04/28 10:09:41;;;;;;;0.85;0.30;;;14.60;44.60;;;;;;5112255;28;20071;-71
2022/04/28 10:12:09;;;;;;;1.35;0.50;;;14.70;44.60;;;;;;5112473;28;20043;-65
2022/04/28 10:14:39;;;;;;;1.45;0.30;;;14.70;44.60;;;;;;5111292;28;20099;-70
2022/04/28 10:17:10;;;;;;;1.73;0.73;;;14.70;44.60;;;;;;5111168;28;20486;-70
2022/04/28 10:19:42;;;;;;;1.83;0.30;;;14.80;44.50;;;;;;5110959;28;20526;-70
2022/04/28 10:22:13;;;;;;;2.35;0.40;;;14.80;44.30;;;;;;5112058;28;20149;-70
2022/04/28 10:33:18;;;;;;;1.38;0.30;;;14.70;44.50;;;;;;5109776;28;20055;-70
2022/04/28 10:41:14;;;;;;;1.90;0.40;;;14.70;44.50;;;;;;5089408;28;20489;-63
2022/04/28 10:43:42;;;;;;;2.83;0.50;;;14.80;44.60;;;;;;5105075;28;20054;-66
2022/04/28 10:48:52;;;;;;;1.67;0.30;;;14.70;44.60;;;;;;5152560;27;1170504;-63
2022/04/28 10:51:20;;;;;;;3.58;0.40;;;14.70;44.60;;;;;;5153136;27;20763;-65
2022/04/28 11:07:30;;;;;;;2.80;0.60;;;14.70;44.60;;;;;;5089482;27;20899;-64
2022/04/28 11:10:04;;;;;;;1.88;0.30;;;14.70;44.60;;;;;;5088077;28;20050;-62
2022/04/28 11:12:36;;;;;;;0.98;0.50;;;14.70;44.90;;;;;;5088112;28;20044;-67
2022/04/28 11:15:07;;;;;;;2.15;0.30;;;14.70;45.40;;;;;;5087941;28;20052;-67
2022/04/28 11:17:33;;;;;;;;;;;14.70;45.10;;;;;;5088409;28;20040;-62
2022/04/28 11:20:03;;;;;;;0.80;0.20;;;14.70;44.90;;;;;;5087960;28;19916;-67
2022/04/28 11:22:29;;;;;;;2.55;0.30;;;14.70;44.90;;;;;;5087890;28;20082;-62
2022/04/28 11:24:56;;;;;;;1.50;0.30;;;14.80;44.90;;;;;;5088143;28;20052;-68
2022/04/28 11:27:24;;;;;;;3.15;0.52;;;14.80;44.90;;;;;;5089029;28;20040;-68
2022/04/28 11:29:51;;;;;;;1.42;0.55;;;14.80;45.00;;;;;;5089072;28;20040;-64
2022/04/28 11:32:18;;;;;;;2.28;0.30;;;14.80;44.90;;;;;;5087736;28;20174;-63
2022/04/28 11:34:48;;;;;;;1.55;0.35;;;14.80;45.20;;;;;;5087599;28;20495;-68
2022/04/28 11:37:16;;;;;;;3.03;0.45;;;14.70;45.40;;;;;;5087947;28;20133;-65
2022/04/28 11:39:44;;;;;;;1.67;0.30;;;14.80;45.30;;;;;;5089270;28;20078;-68
2022/04/28 11:42:10;;;;;;;1.50;0.30;;;14.80;45.10;;;;;;5087786;28;20083;-63
2022/04/28 11:44:44;;;;;;;0.98;0.25;;;14.80;45.00;;;;;;5087557;28;20506;-68
2022/04/28 11:47:10;;;;;;;0.82;0.20;;;14.80;45.00;;;;;;5087391;28;20051;-63
2022/04/28 11:49:39;;;;;;;1.85;0.85;;;14.80;45.00;;;;;;5088648;28;20048;-68
2022/04/28 11:52:26;;;;;;;1.20;0.20;;;14.80;45.00;;;;;;5087576;28;20106;-63
2022/04/28 11:55:04;;;;;;;1.23;0.20;;;14.80;45.00;;;;;;5087493;28;20589;-62
2022/04/28 11:57:30;;;;;;;1.40;0.30;;;14.80;45.00;;;;;;5088768;28;20047;-63
2022/04/28 11:59:58;;;;;;;2.25;0.52;;;14.80;45.00;;;;;;5087239;28;20514;-68
2022/04/28 12:02:32;;;;;;;1.02;0.35;;;14.90;45.10;;;;;;5088509;28;20369;-63
2022/04/28 12:05:01;;;;;;;1.55;0.20;;;14.80;45.00;;;;;;5087354;28;20033;-62
2022/04/28 12:07:31;;;;;;;1.42;0.20;;;14.90;45.10;;;;;;5084718;28;20079;-63
2022/04/28 12:15:35;;;;;;;2.22;0.30;;;14.80;45.10;;;;;;5067663;28;20411;-67
2022/04/28 12:23:41;;;;;;;1.83;0.40;;;14.80;45.10;;;;;;5109288;27;20663;-69
2022/04/28 12:26:09;;;;;;;1.30;0.22;;;14.80;45.20;;;;;;5106790;28;20483;-64
2022/04/28 12:28:40;;;;;;;0.90;0.28;;;14.80;45.20;;;;;;5106486;28;20405;-65
2022/04/28 12:31:08;;;;;;;2.30;0.50;;;14.80;45.20;;;;;;5101760;28;20078;-62
2022/04/28 12:33:37;;;;;;;1.92;0.50;;;14.90;45.20;;;;;;5107623;28;20480;-72
2022/04/28 12:36:05;;;;;;;1.73;0.25;;;14.90;45.20;;;;;;5108319;28;20183;-71
2022/04/28 12:38:35;;;;;;;0.98;0.30;;;14.90;45.30;;;;;;5108439;28;20101;-70
2022/04/28 12:41:22;;;;;;;1.92;0.40;;;15.00;45.40;;;;;;5109448;28;20028;-65
2022/04/28 12:43:51;;;;;;;1.63;0.30;;;15.00;45.50;;;;;;5108369;28;20044;-67
2022/04/28 12:46:32;;;;;;;1.75;0.30;;;15.00;45.40;;;;;;5108576;28;20071;-69
2022/04/28 12:49:01;;;;;;;1.23;0.25;;;14.90;45.40;;;;;;5108254;28;20032;-65
2022/04/28 12:51:28;;;;;;;0.60;0.30;;;14.90;45.50;;;;;;5107906;28;20043;-70
2022/04/28 12:54:06;;;;;;;2.67;0.40;;;14.90;45.70;;;;;;5108159;28;20039;-69
2022/04/28 12:56:32;;;;;;;1.10;0.40;;;14.90;45.70;;;;;;5108193;28;20066;-69
2022/04/28 12:59:04;;;;;;;0.95;0.32;;;14.90;45.60;;;;;;5107983;28;20036;-69
2022/04/28 13:01:34;;;;;;;1.15;0.30;;;14.90;45.70;;;;;;5107969;28;20047;-66
2022/04/28 13:04:03;;;;;;;0.90;0.30;;;14.90;45.60;;;;;;5107675;28;20040;-69
2022/04/28 13:06:31;;;;;;;1.30;0.20;;;14.90;45.50;;;;;;5107745;28;20036;-70
2022/04/28 13:09:00;;;;;;;2.00;0.30;;;14.90;45.60;;;;;;5109131;28;20036;-70
2022/04/28 13:11:29;;;;;;;3.97;0.40;;;14.80;45.60;;;;;;5107699;28;20047;-65
2022/04/28 13:13:56;;;;;;;1.70;0.30;;;14.90;45.80;;;;;;5107593;28;20047;-65
2022/04/28 13:16:23;;;;;;;3.83;0.50;;;14.90;46.00;;;;;;5107745;28;20048;-64
2022/04/28 13:18:49;;;;;;;1.35;0.40;;;14.90;46.00;;;;;;5107432;28;20625;-68
2022/04/28 13:21:19;;;;;;;1.08;0.45;;;15.00;45.90;;;;;;5107062;28;20118;-70
2022/04/28 13:23:46;;;;;;;1.20;0.40;;;15.00;45.80;;;;;;5108661;28;20066;-70
2022/04/28 13:26:13;;;;;;;1.73;0.40;;;15.00;46.20;;;;;;5107439;28;20460;-72
2022/04/28 13:28:39;;;;;;;2.70;0.85;;;15.00;45.80;;;;;;5108662;28;20209;-70
2022/04/28 13:31:06;;;;;;;1.23;0.50;;;15.00;45.70;;;;;;5107321;28;20036;-65
2022/04/28 13:33:32;;;;;;;1.90;0.50;;;15.00;45.90;;;;;;5101665;28;20043;-69
2022/04/28 13:36:00;;;;;;;0.88;0.30;;;15.00;46.00;;;;;;5094938;28;20072;-67
2022/04/28 13:38:26;;;;;;;1.52;0.28;;;15.00;45.90;;;;;;5093462;28;20058;-66
2022/04/28 13:40:52;;;;;;;2.67;0.40;;;15.00;45.80;;;;;;5093800;28;20032;-65
2022/04/28 13:43:17;;;;;;;1.85;0.47;;;15.00;46.00;;;;;;5093414;28;20461;-69
2022/04/28 13:45:43;;;;;;;2.70;0.40;;;15.00;46.00;;;;;;5094670;28;20044;-72
2022/04/28 13:48:10;;;;;;;2.80;0.50;;;15.00;46.00;;;;;;5093589;28;20374;-69
2022/04/28 13:50:37;;;;;;;0.82;0.30;;;15.10;46.00;;;;;;5093566;28;20044;-71
2022/04/28 13:53:03;;;;;;;2.60;0.30;;;15.10;45.80;;;;;;5093578;28;20093;-65
2022/04/28 13:55:29;;;;;;;2.38;0.30;;;15.10;45.80;;;;;;5093630;28;20048;-75
2022/04/28 13:57:55;;;;;;;2.78;0.40;;;15.00;46.10;;;;;;5093460;28;20086;-70
2022/04/28 14:00:21;;;;;;;3.03;0.77;;;15.00;46.20;;;;;;5092975;28;20051;-65
2022/04/28 14:02:47;;;;;;;2.88;0.40;;;15.00;46.30;;;;;;5093014;28;20059;-70
2022/04/28 14:05:13;;;;;;;1.98;0.30;;;15.10;46.30;;;;;;5093287;28;20040;-66
2022/04/28 14:07:40;;;;;;;2.25;0.50;;;15.10;46.20;;;;;;5093188;28;20392;-70
2022/04/28 14:10:07;;;;;;;1.52;0.30;;;15.10;46.10;;;;;;5092911;28;20119;-70
2022/04/28 14:12:34;;;;;;;1.40;0.40;;;15.10;46.10;;;;;;5092870;28;20048;-71
2022/04/28 14:15:03;;;;;;;2.05;0.47;;;15.10;46.10;;;;;;5094244;28;20050;-70
2022/04/28 14:17:30;;;;;;;3.63;0.40;;;15.10;46.10;;;;;;5092677;28;20043;-70
2022/04/28 14:19:55;;;;;;;1.63;0.50;;;15.10;46.10;;;;;;5093676;28;20047;-65
2022/04/28 14:22:24;;;;;;;2.78;0.40;;;15.10;46.40;;;;;;5092511;28;20064;-65
2022/04/28 14:24:50;;;;;;;1.73;0.65;;;15.10;46.40;;;;;;5093890;28;20059;-65
2022/04/28 14:27:16;;;;;;;2.40;0.50;;;15.10;46.40;;;;;;5093778;28;20114;-65
2022/04/28 14:29:42;;;;;;;2.70;0.40;;;15.20;46.40;;;;;;5092879;28;20052;-70